sensor_id;sensor_type;location;lat;lon;timestamp;P1;durP1;ratioP1;P2;durP2;ratioP2
6394;SDS011;3230;42.588;23.358;2022-12-17T00:00:21;2.23;;;1.50;;
6394;SDS011;3230;42.588;23.358;2022-12-17T00:03:07;3.33;;;1.70;;
6394;SDS011;3230;42.588;23.358;2022-12-17T00:05:53;6.27;;;1.87;;
6394;SDS011;3230;42.588;23.358;2022-12-17T00:08:37;5.00;;;2.60;;
6394;SDS011;3230;42.588;23.358;2022-12-17T00:11:21;3.83;;;1.30;;
6394;SDS011;3230;42.588;23.358;2022-12-17T00:14:05;2.60;;;1.37;;
6394;SDS011;3230;42.588;23.358;2022-12-17T00:16:49;4.00;;;1.37;;
6394;SDS011;3230;42.588;23.358;2022-12-17T00:19:33;4.83;;;1.00;;
6394;SDS011;3230;42.588;23.358;2022-12-17T00:22:17;5.43;;;1.20;;
6394;SDS011;3230;42.588;23.358;2022-12-17T00:25:15;1.20;;;1.10;;
6394;SDS011;3230;42.588;23.358;2022-12-17T00:27:59;3.70;;;1.10;;
6394;SDS011;3230;42.588;23.358;2022-12-17T00:30:49;2.33;;;1.40;;
6394;SDS011;3230;42.588;23.358;2022-12-17T00:33:34;3.53;;;1.10;;
6394;SDS011;3230;42.588;23.358;2022-12-17T00:36:17;2.07;;;1.33;;
6394;SDS011;3230;42.588;23.358;2022-12-17T00:39:01;3.17;;;1.07;;
6394;SDS011;3230;42.588;23.358;2022-12-17T00:41:45;3.23;;;1.63;;
6394;SDS011;3230;42.588;23.358;2022-12-17T00:44:29;4.90;;;1.30;;
6394;SDS011;3230;42.588;23.358;2022-12-17T00:47:13;2.67;;;1.37;;
6394;SDS011;3230;42.588;23.358;2022-12-17T00:49:57;4.97;;;1.40;;
6394;SDS011;3230;42.588;23.358;2022-12-17T00:52:41;2.97;;;1.00;;
6394;SDS011;3230;42.588;23.358;2022-12-17T00:55:25;3.50;;;1.27;;
6394;SDS011;3230;42.588;23.358;2022-12-17T00:58:09;2.47;;;1.63;;
6394;SDS011;3230;42.588;23.358;2022-12-17T01:00:57;1.77;;;1.40;;
6394;SDS011;3230;42.588;23.358;2022-12-17T01:03:41;5.23;;;1.17;;
6394;SDS011;3230;42.588;23.358;2022-12-17T01:06:25;2.10;;;1.03;;
6394;SDS011;3230;42.588;23.358;2022-12-17T01:09:09;4.20;;;1.07;;
6394;SDS011;3230;42.588;23.358;2022-12-17T01:11:53;2.93;;;1.60;;
6394;SDS011;3230;42.588;23.358;2022-12-17T01:14:37;5.63;;;1.73;;
6394;SDS011;3230;42.588;23.358;2022-12-17T01:17:21;5.60;;;1.70;;
6394;SDS011;3230;42.588;23.358;2022-12-17T01:20:05;6.47;;;1.33;;
6394;SDS011;3230;42.588;23.358;2022-12-17T01:22:49;1.80;;;1.00;;
6394;SDS011;3230;42.588;23.358;2022-12-17T01:25:33;4.47;;;1.60;;
6394;SDS011;3230;42.588;23.358;2022-12-17T01:28:24;7.00;;;2.90;;
6394;SDS011;3230;42.588;23.358;2022-12-17T01:31:09;14.37;;;3.40;;
6394;SDS011;3230;42.588;23.358;2022-12-17T01:33:54;13.60;;;5.03;;
6394;SDS011;3230;42.588;23.358;2022-12-17T01:36:38;10.13;;;4.43;;
6394;SDS011;3230;42.588;23.358;2022-12-17T01:39:22;1.70;;;1.13;;
6394;SDS011;3230;42.588;23.358;2022-12-17T01:42:12;4.10;;;2.23;;
6394;SDS011;3230;42.588;23.358;2022-12-17T01:44:56;4.30;;;2.17;;
6394;SDS011;3230;42.588;23.358;2022-12-17T01:50:57;5.87;;;1.73;;
6394;SDS011;3230;42.588;23.358;2022-12-17T01:53:43;3.53;;;1.40;;
6394;SDS011;3230;42.588;23.358;2022-12-17T01:56:31;3.00;;;0.83;;
6394;SDS011;3230;42.588;23.358;2022-12-17T01:59:17;1.40;;;1.30;;
6394;SDS011;3230;42.588;23.358;2022-12-17T02:02:04;4.77;;;1.57;;
6394;SDS011;3230;42.588;23.358;2022-12-17T02:04:48;1.63;;;1.17;;
6394;SDS011;3230;42.588;23.358;2022-12-17T02:10:29;6.53;;;1.67;;
6394;SDS011;3230;42.588;23.358;2022-12-17T02:13:37;2.40;;;1.10;;
6394;SDS011;3230;42.588;23.358;2022-12-17T02:16:32;1.60;;;1.20;;
6394;SDS011;3230;42.588;23.358;2022-12-17T02:19:30;8.10;;;1.60;;
6394;SDS011;3230;42.588;23.358;2022-12-17T02:25:25;7.80;;;1.70;;
6394;SDS011;3230;42.588;23.358;2022-12-17T02:28:28;2.90;;;1.60;;
6394;SDS011;3230;42.588;23.358;2022-12-17T02:31:14;2.20;;;1.37;;
6394;SDS011;3230;42.588;23.358;2022-12-17T02:33:59;2.03;;;1.10;;
6394;SDS011;3230;42.588;23.358;2022-12-17T02:36:44;7.57;;;1.40;;
6394;SDS011;3230;42.588;23.358;2022-12-17T02:39:28;2.73;;;1.13;;
6394;SDS011;3230;42.588;23.358;2022-12-17T02:42:12;2.73;;;1.50;;
6394;SDS011;3230;42.588;23.358;2022-12-17T02:44:57;4.17;;;1.23;;
6394;SDS011;3230;42.588;23.358;2022-12-17T02:47:42;5.70;;;1.20;;
6394;SDS011;3230;42.588;23.358;2022-12-17T02:50:27;3.03;;;1.40;;
6394;SDS011;3230;42.588;23.358;2022-12-17T02:53:10;2.63;;;1.10;;
6394;SDS011;3230;42.588;23.358;2022-12-17T02:55:55;4.23;;;1.43;;
6394;SDS011;3230;42.588;23.358;2022-12-17T02:58:39;1.80;;;0.97;;
6394;SDS011;3230;42.588;23.358;2022-12-17T03:01:23;2.60;;;1.77;;
6394;SDS011;3230;42.588;23.358;2022-12-17T03:04:07;3.43;;;1.27;;
6394;SDS011;3230;42.588;23.358;2022-12-17T03:06:51;3.10;;;1.20;;
6394;SDS011;3230;42.588;23.358;2022-12-17T03:09:34;3.43;;;1.10;;
6394;SDS011;3230;42.588;23.358;2022-12-17T03:12:18;1.97;;;1.10;;
6394;SDS011;3230;42.588;23.358;2022-12-17T03:15:02;1.63;;;1.20;;
6394;SDS011;3230;42.588;23.358;2022-12-17T03:17:46;4.03;;;1.10;;
6394;SDS011;3230;42.588;23.358;2022-12-17T03:20:30;4.03;;;1.00;;
6394;SDS011;3230;42.588;23.358;2022-12-17T03:23:14;3.20;;;0.90;;
6394;SDS011;3230;42.588;23.358;2022-12-17T03:25:59;2.13;;;1.10;;
6394;SDS011;3230;42.588;23.358;2022-12-17T03:28:44;3.60;;;0.90;;
6394;SDS011;3230;42.588;23.358;2022-12-17T03:31:28;2.73;;;1.30;;
6394;SDS011;3230;42.588;23.358;2022-12-17T03:34:13;0.90;;;0.83;;
6394;SDS011;3230;42.588;23.358;2022-12-17T03:36:56;1.47;;;0.83;;
6394;SDS011;3230;42.588;23.358;2022-12-17T03:39:40;2.27;;;1.10;;
6394;SDS011;3230;42.588;23.358;2022-12-17T03:42:24;2.93;;;1.10;;
6394;SDS011;3230;42.588;23.358;2022-12-17T03:45:08;4.60;;;0.90;;
6394;SDS011;3230;42.588;23.358;2022-12-17T03:48:02;5.30;;;1.77;;
6394;SDS011;3230;42.588;23.358;2022-12-17T03:50:56;3.50;;;1.60;;
6394;SDS011;3230;42.588;23.358;2022-12-17T03:53:41;2.07;;;1.10;;
6394;SDS011;3230;42.588;23.358;2022-12-17T03:56:26;1.57;;;1.10;;
6394;SDS011;3230;42.588;23.358;2022-12-17T03:59:11;5.00;;;1.33;;
6394;SDS011;3230;42.588;23.358;2022-12-17T04:01:55;2.50;;;1.57;;
6394;SDS011;3230;42.588;23.358;2022-12-17T04:04:39;2.37;;;1.50;;
6394;SDS011;3230;42.588;23.358;2022-12-17T04:07:23;5.07;;;1.40;;
6394;SDS011;3230;42.588;23.358;2022-12-17T04:10:07;3.80;;;1.10;;
6394;SDS011;3230;42.588;23.358;2022-12-17T04:12:51;1.43;;;1.10;;
6394;SDS011;3230;42.588;23.358;2022-12-17T04:15:49;2.43;;;1.23;;
6394;SDS011;3230;42.588;23.358;2022-12-17T04:18:33;4.17;;;1.00;;
6394;SDS011;3230;42.588;23.358;2022-12-17T04:21:17;2.10;;;1.33;;
6394;SDS011;3230;42.588;23.358;2022-12-17T04:24:01;3.07;;;1.43;;
6394;SDS011;3230;42.588;23.358;2022-12-17T04:26:45;3.60;;;1.70;;
6394;SDS011;3230;42.588;23.358;2022-12-17T04:29:29;6.10;;;1.10;;
6394;SDS011;3230;42.588;23.358;2022-12-17T04:32:13;2.40;;;1.00;;
6394;SDS011;3230;42.588;23.358;2022-12-17T04:34:57;3.27;;;1.23;;
6394;SDS011;3230;42.588;23.358;2022-12-17T04:37:41;3.07;;;0.83;;
6394;SDS011;3230;42.588;23.358;2022-12-17T04:40:25;3.73;;;1.30;;
6394;SDS011;3230;42.588;23.358;2022-12-17T04:43:09;7.70;;;1.73;;
6394;SDS011;3230;42.588;23.358;2022-12-17T04:45:54;2.40;;;1.10;;
6394;SDS011;3230;42.588;23.358;2022-12-17T04:48:39;1.63;;;1.00;;
6394;SDS011;3230;42.588;23.358;2022-12-17T04:51:23;3.13;;;1.00;;
6394;SDS011;3230;42.588;23.358;2022-12-17T04:54:07;5.00;;;1.30;;
6394;SDS011;3230;42.588;23.358;2022-12-17T04:56:51;2.17;;;1.30;;
6394;SDS011;3230;42.588;23.358;2022-12-17T04:59:36;10.57;;;1.23;;
6394;SDS011;3230;42.588;23.358;2022-12-17T05:02:19;3.60;;;1.50;;
6394;SDS011;3230;42.588;23.358;2022-12-17T05:05:04;11.47;;;1.40;;
6394;SDS011;3230;42.588;23.358;2022-12-17T05:07:51;3.23;;;1.37;;
6394;SDS011;3230;42.588;23.358;2022-12-17T05:10:36;4.10;;;1.10;;
6394;SDS011;3230;42.588;23.358;2022-12-17T05:13:20;3.67;;;1.17;;
6394;SDS011;3230;42.588;23.358;2022-12-17T05:16:04;2.80;;;1.00;;
6394;SDS011;3230;42.588;23.358;2022-12-17T05:18:48;3.63;;;1.20;;
6394;SDS011;3230;42.588;23.358;2022-12-17T05:21:32;3.10;;;1.07;;
6394;SDS011;3230;42.588;23.358;2022-12-17T05:24:16;5.70;;;1.30;;
6394;SDS011;3230;42.588;23.358;2022-12-17T05:27:00;1.93;;;1.00;;
6394;SDS011;3230;42.588;23.358;2022-12-17T05:29:44;2.00;;;1.07;;
6394;SDS011;3230;42.588;23.358;2022-12-17T05:32:28;3.50;;;1.43;;
6394;SDS011;3230;42.588;23.358;2022-12-17T05:35:12;1.57;;;1.17;;
6394;SDS011;3230;42.588;23.358;2022-12-17T05:38:01;2.50;;;1.20;;
6394;SDS011;3230;42.588;23.358;2022-12-17T05:40:49;4.53;;;1.40;;
6394;SDS011;3230;42.588;23.358;2022-12-17T05:43:33;2.23;;;1.40;;
6394;SDS011;3230;42.588;23.358;2022-12-17T05:46:18;2.83;;;1.17;;
6394;SDS011;3230;42.588;23.358;2022-12-17T05:49:02;1.80;;;1.03;;
6394;SDS011;3230;42.588;23.358;2022-12-17T05:51:46;2.37;;;1.40;;
6394;SDS011;3230;42.588;23.358;2022-12-17T05:54:30;1.60;;;1.27;;
6394;SDS011;3230;42.588;23.358;2022-12-17T05:57:17;1.87;;;1.00;;
6394;SDS011;3230;42.588;23.358;2022-12-17T06:00:00;4.20;;;1.37;;
6394;SDS011;3230;42.588;23.358;2022-12-17T06:02:44;5.17;;;1.20;;
6394;SDS011;3230;42.588;23.358;2022-12-17T06:05:52;4.27;;;1.20;;
6394;SDS011;3230;42.588;23.358;2022-12-17T06:08:38;10.40;;;1.40;;
6394;SDS011;3230;42.588;23.358;2022-12-17T06:11:22;6.90;;;1.63;;
6394;SDS011;3230;42.588;23.358;2022-12-17T06:14:06;4.23;;;1.37;;
6394;SDS011;3230;42.588;23.358;2022-12-17T06:16:50;6.57;;;1.30;;
6394;SDS011;3230;42.588;23.358;2022-12-17T06:19:34;2.27;;;1.20;;
6394;SDS011;3230;42.588;23.358;2022-12-17T06:22:35;3.40;;;1.63;;
6394;SDS011;3230;42.588;23.358;2022-12-17T06:25:19;2.90;;;1.33;;
6394;SDS011;3230;42.588;23.358;2022-12-17T06:28:03;1.90;;;1.50;;
6394;SDS011;3230;42.588;23.358;2022-12-17T06:30:51;4.27;;;1.50;;
6394;SDS011;3230;42.588;23.358;2022-12-17T06:33:36;1.50;;;1.27;;
6394;SDS011;3230;42.588;23.358;2022-12-17T06:36:20;2.60;;;1.50;;
6394;SDS011;3230;42.588;23.358;2022-12-17T06:39:04;3.70;;;1.20;;
6394;SDS011;3230;42.588;23.358;2022-12-17T06:41:48;2.60;;;1.30;;
6394;SDS011;3230;42.588;23.358;2022-12-17T06:44:31;3.33;;;1.00;;
6394;SDS011;3230;42.588;23.358;2022-12-17T06:47:16;3.73;;;1.40;;
6394;SDS011;3230;42.588;23.358;2022-12-17T06:50:01;6.37;;;1.50;;
6394;SDS011;3230;42.588;23.358;2022-12-17T06:52:45;1.53;;;1.27;;
6394;SDS011;3230;42.588;23.358;2022-12-17T06:55:29;2.37;;;1.40;;
6394;SDS011;3230;42.588;23.358;2022-12-17T06:58:13;3.00;;;1.57;;
6394;SDS011;3230;42.588;23.358;2022-12-17T07:00:57;4.80;;;1.57;;
6394;SDS011;3230;42.588;23.358;2022-12-17T07:03:41;4.40;;;1.77;;
6394;SDS011;3230;42.588;23.358;2022-12-17T07:06:25;3.00;;;1.90;;
6394;SDS011;3230;42.588;23.358;2022-12-17T07:09:09;3.37;;;1.17;;
6394;SDS011;3230;42.588;23.358;2022-12-17T07:11:53;6.07;;;1.30;;
6394;SDS011;3230;42.588;23.358;2022-12-17T07:14:36;2.80;;;1.70;;
6394;SDS011;3230;42.588;23.358;2022-12-17T07:17:20;2.70;;;1.37;;
6394;SDS011;3230;42.588;23.358;2022-12-17T07:20:04;4.17;;;1.87;;
6394;SDS011;3230;42.588;23.358;2022-12-17T07:22:53;3.50;;;1.20;;
6394;SDS011;3230;42.588;23.358;2022-12-17T07:25:38;4.10;;;1.70;;
6394;SDS011;3230;42.588;23.358;2022-12-17T07:28:23;6.47;;;2.03;;
6394;SDS011;3230;42.588;23.358;2022-12-17T07:31:07;5.33;;;3.07;;
6394;SDS011;3230;42.588;23.358;2022-12-17T07:33:51;6.60;;;3.33;;
6394;SDS011;3230;42.588;23.358;2022-12-17T07:36:35;6.33;;;2.10;;
6394;SDS011;3230;42.588;23.358;2022-12-17T07:39:19;3.80;;;2.33;;
6394;SDS011;3230;42.588;23.358;2022-12-17T07:42:03;11.07;;;2.73;;
6394;SDS011;3230;42.588;23.358;2022-12-17T07:44:47;5.87;;;3.10;;
6394;SDS011;3230;42.588;23.358;2022-12-17T07:47:31;3.13;;;2.73;;
6394;SDS011;3230;42.588;23.358;2022-12-17T07:50:15;4.77;;;3.23;;
6394;SDS011;3230;42.588;23.358;2022-12-17T07:52:59;11.83;;;2.83;;
6394;SDS011;3230;42.588;23.358;2022-12-17T07:55:44;3.60;;;2.40;;
6394;SDS011;3230;42.588;23.358;2022-12-17T07:58:28;3.67;;;2.10;;
6394;SDS011;3230;42.588;23.358;2022-12-17T08:01:12;5.93;;;3.10;;
6394;SDS011;3230;42.588;23.358;2022-12-17T08:03:56;3.53;;;2.20;;
6394;SDS011;3230;42.588;23.358;2022-12-17T08:06:40;4.17;;;2.40;;
6394;SDS011;3230;42.588;23.358;2022-12-17T08:09:24;3.20;;;2.40;;
6394;SDS011;3230;42.588;23.358;2022-12-17T08:12:08;4.17;;;2.93;;
6394;SDS011;3230;42.588;23.358;2022-12-17T08:14:52;3.63;;;2.70;;
6394;SDS011;3230;42.588;23.358;2022-12-17T08:17:36;3.57;;;2.30;;
6394;SDS011;3230;42.588;23.358;2022-12-17T08:20:20;3.63;;;2.00;;
6394;SDS011;3230;42.588;23.358;2022-12-17T08:23:04;3.53;;;1.90;;
6394;SDS011;3230;42.588;23.358;2022-12-17T08:25:48;4.97;;;2.13;;
6394;SDS011;3230;42.588;23.358;2022-12-17T08:28:32;3.20;;;2.00;;
6394;SDS011;3230;42.588;23.358;2022-12-17T08:31:30;3.07;;;2.03;;
6394;SDS011;3230;42.588;23.358;2022-12-17T08:34:21;2.77;;;2.07;;
6394;SDS011;3230;42.588;23.358;2022-12-17T08:37:06;3.47;;;1.87;;
6394;SDS011;3230;42.588;23.358;2022-12-17T08:39:50;3.67;;;2.27;;
6394;SDS011;3230;42.588;23.358;2022-12-17T08:42:56;2.27;;;1.90;;
6394;SDS011;3230;42.588;23.358;2022-12-17T08:45:44;2.97;;;2.00;;
6394;SDS011;3230;42.588;23.358;2022-12-17T08:48:29;2.20;;;1.87;;
6394;SDS011;3230;42.588;23.358;2022-12-17T08:51:13;2.13;;;1.60;;
6394;SDS011;3230;42.588;23.358;2022-12-17T08:53:57;4.13;;;2.47;;
6394;SDS011;3230;42.588;23.358;2022-12-17T08:56:41;7.17;;;2.10;;
6394;SDS011;3230;42.588;23.358;2022-12-17T08:59:25;3.73;;;1.80;;
6394;SDS011;3230;42.588;23.358;2022-12-17T09:02:09;3.43;;;2.17;;
6394;SDS011;3230;42.588;23.358;2022-12-17T09:04:53;3.40;;;1.70;;
6394;SDS011;3230;42.588;23.358;2022-12-17T09:07:37;4.63;;;2.10;;
6394;SDS011;3230;42.588;23.358;2022-12-17T09:10:21;6.00;;;3.03;;
6394;SDS011;3230;42.588;23.358;2022-12-17T09:13:05;10.47;;;3.97;;
6394;SDS011;3230;42.588;23.358;2022-12-17T09:15:52;4.57;;;2.90;;
6394;SDS011;3230;42.588;23.358;2022-12-17T09:18:37;4.67;;;3.90;;
6394;SDS011;3230;42.588;23.358;2022-12-17T09:21:21;4.53;;;1.70;;
6394;SDS011;3230;42.588;23.358;2022-12-17T09:24:05;5.17;;;2.40;;
6394;SDS011;3230;42.588;23.358;2022-12-17T09:26:49;6.63;;;4.30;;
6394;SDS011;3230;42.588;23.358;2022-12-17T09:29:33;7.30;;;5.07;;
6394;SDS011;3230;42.588;23.358;2022-12-17T09:32:17;8.37;;;5.40;;
6394;SDS011;3230;42.588;23.358;2022-12-17T09:35:01;12.87;;;5.70;;
6394;SDS011;3230;42.588;23.358;2022-12-17T09:37:50;10.00;;;4.70;;
6394;SDS011;3230;42.588;23.358;2022-12-17T09:40:37;10.33;;;5.20;;
6394;SDS011;3230;42.588;23.358;2022-12-17T09:46:34;9.30;;;4.30;;
6394;SDS011;3230;42.588;23.358;2022-12-17T09:49:23;9.13;;;4.77;;
6394;SDS011;3230;42.588;23.358;2022-12-17T09:52:23;7.10;;;4.47;;
6394;SDS011;3230;42.588;23.358;2022-12-17T09:58:18;8.33;;;5.30;;
6394;SDS011;3230;42.588;23.358;2022-12-17T10:01:19;11.03;;;5.50;;
6394;SDS011;3230;42.588;23.358;2022-12-17T10:04:32;12.33;;;6.53;;
6394;SDS011;3230;42.588;23.358;2022-12-17T10:07:23;17.63;;;11.60;;
6394;SDS011;3230;42.588;23.358;2022-12-17T10:13:00;28.37;;;18.73;;
6394;SDS011;3230;42.588;23.358;2022-12-17T10:15:44;27.47;;;13.53;;
6394;SDS011;3230;42.588;23.358;2022-12-17T10:18:28;25.17;;;14.97;;
6394;SDS011;3230;42.588;23.358;2022-12-17T10:21:12;17.27;;;7.60;;
6394;SDS011;3230;42.588;23.358;2022-12-17T10:24:06;10.20;;;6.63;;
6394;SDS011;3230;42.588;23.358;2022-12-17T10:26:51;16.90;;;7.93;;
6394;SDS011;3230;42.588;23.358;2022-12-17T10:29:35;16.00;;;8.40;;
6394;SDS011;3230;42.588;23.358;2022-12-17T10:35:07;12.20;;;7.37;;
6394;SDS011;3230;42.588;23.358;2022-12-17T10:37:56;2.43;;;2.23;;
6394;SDS011;3230;42.588;23.358;2022-12-17T10:40:43;7.90;;;4.33;;
6394;SDS011;3230;42.588;23.358;2022-12-17T10:43:28;2.93;;;2.13;;
6394;SDS011;3230;42.588;23.358;2022-12-17T10:46:22;2.13;;;0.87;;
6394;SDS011;3230;42.588;23.358;2022-12-17T10:49:11;1.30;;;1.20;;
6394;SDS011;3230;42.588;23.358;2022-12-17T10:52:01;4.27;;;2.80;;
6394;SDS011;3230;42.588;23.358;2022-12-17T10:54:56;8.47;;;4.60;;
6394;SDS011;3230;42.588;23.358;2022-12-17T10:57:43;4.20;;;3.50;;
6394;SDS011;3230;42.588;23.358;2022-12-17T11:00:29;4.57;;;2.93;;
6394;SDS011;3230;42.588;23.358;2022-12-17T11:03:23;3.27;;;2.70;;
6394;SDS011;3230;42.588;23.358;2022-12-17T11:06:22;3.67;;;2.50;;
6394;SDS011;3230;42.588;23.358;2022-12-17T11:12:15;2.83;;;2.00;;
6394;SDS011;3230;42.588;23.358;2022-12-17T11:15:11;1.90;;;1.70;;
6394;SDS011;3230;42.588;23.358;2022-12-17T11:18:00;1.13;;;1.03;;
6394;SDS011;3230;42.588;23.358;2022-12-17T11:20:50;2.10;;;1.53;;
6394;SDS011;3230;42.588;23.358;2022-12-17T11:23:40;2.10;;;1.90;;
6394;SDS011;3230;42.588;23.358;2022-12-17T11:26:29;3.43;;;1.93;;
6394;SDS011;3230;42.588;23.358;2022-12-17T11:29:17;1.37;;;1.20;;
6394;SDS011;3230;42.588;23.358;2022-12-17T11:38:22;3.33;;;1.97;;
6394;SDS011;3230;42.588;23.358;2022-12-17T11:41:14;2.70;;;2.03;;
6394;SDS011;3230;42.588;23.358;2022-12-17T11:50:24;2.33;;;1.90;;
6394;SDS011;3230;42.588;23.358;2022-12-17T11:59:48;4.10;;;1.50;;
6394;SDS011;3230;42.588;23.358;2022-12-17T12:05:59;1.47;;;1.33;;
6394;SDS011;3230;42.588;23.358;2022-12-17T12:14:46;11.90;;;7.17;;
6394;SDS011;3230;42.588;23.358;2022-12-17T12:30:23;19.03;;;10.23;;
6394;SDS011;3230;42.588;23.358;2022-12-17T12:36:26;13.07;;;6.00;;
6394;SDS011;3230;42.588;23.358;2022-12-17T12:39:11;7.57;;;5.07;;
6394;SDS011;3230;42.588;23.358;2022-12-17T12:42:05;6.70;;;4.00;;
6394;SDS011;3230;42.588;23.358;2022-12-17T12:47:50;4.53;;;3.30;;
6394;SDS011;3230;42.588;23.358;2022-12-17T12:53:29;9.43;;;5.37;;
6394;SDS011;3230;42.588;23.358;2022-12-17T12:56:32;7.77;;;4.93;;
6394;SDS011;3230;42.588;23.358;2022-12-17T12:59:28;11.13;;;6.47;;
6394;SDS011;3230;42.588;23.358;2022-12-17T13:08:04;13.17;;;7.20;;
6394;SDS011;3230;42.588;23.358;2022-12-17T13:10:44;8.10;;;4.60;;
6394;SDS011;3230;42.588;23.358;2022-12-17T13:13:21;10.93;;;3.67;;
6394;SDS011;3230;42.588;23.358;2022-12-17T13:15:55;7.33;;;3.63;;
6394;SDS011;3230;42.588;23.358;2022-12-17T13:18:33;8.30;;;4.87;;
6394;SDS011;3230;42.588;23.358;2022-12-17T13:21:05;7.93;;;4.40;;
6394;SDS011;3230;42.588;23.358;2022-12-17T13:23:49;6.50;;;3.33;;
6394;SDS011;3230;42.588;23.358;2022-12-17T13:26:22;2.67;;;2.17;;
6394;SDS011;3230;42.588;23.358;2022-12-17T13:31:21;22.40;;;10.70;;
6394;SDS011;3230;42.588;23.358;2022-12-17T13:36:30;3.90;;;2.80;;
6394;SDS011;3230;42.588;23.358;2022-12-17T13:39:10;7.03;;;2.67;;
6394;SDS011;3230;42.588;23.358;2022-12-17T13:41:39;5.77;;;3.90;;
6394;SDS011;3230;42.588;23.358;2022-12-17T13:44:39;4.07;;;2.60;;
6394;SDS011;3230;42.588;23.358;2022-12-17T13:47:02;5.87;;;2.30;;
6394;SDS011;3230;42.588;23.358;2022-12-17T13:49:29;6.40;;;3.70;;
6394;SDS011;3230;42.588;23.358;2022-12-17T13:52:28;5.67;;;3.40;;
6394;SDS011;3230;42.588;23.358;2022-12-17T13:54:51;5.13;;;2.67;;
6394;SDS011;3230;42.588;23.358;2022-12-17T13:57:18;7.70;;;3.97;;
6394;SDS011;3230;42.588;23.358;2022-12-17T13:59:50;7.20;;;4.40;;
6394;SDS011;3230;42.588;23.358;2022-12-17T14:02:30;6.23;;;3.70;;
6394;SDS011;3230;42.588;23.358;2022-12-17T14:05:06;10.30;;;6.20;;
6394;SDS011;3230;42.588;23.358;2022-12-17T14:07:45;3.90;;;2.13;;
6394;SDS011;3230;42.588;23.358;2022-12-17T14:10:14;8.07;;;2.40;;
6394;SDS011;3230;42.588;23.358;2022-12-17T14:12:40;7.90;;;3.03;;
6394;SDS011;3230;42.588;23.358;2022-12-17T14:15:10;3.23;;;2.37;;
6394;SDS011;3230;42.588;23.358;2022-12-17T14:17:48;4.53;;;4.00;;
6394;SDS011;3230;42.588;23.358;2022-12-17T14:20:15;8.73;;;2.73;;
6394;SDS011;3230;42.588;23.358;2022-12-17T14:22:45;4.13;;;2.30;;
6394;SDS011;3230;42.588;23.358;2022-12-17T14:25:24;4.90;;;3.40;;
6394;SDS011;3230;42.588;23.358;2022-12-17T14:28:01;42.37;;;22.17;;
6394;SDS011;3230;42.588;23.358;2022-12-17T14:30:48;5.33;;;3.47;;
6394;SDS011;3230;42.588;23.358;2022-12-17T14:35:54;5.60;;;3.60;;
6394;SDS011;3230;42.588;23.358;2022-12-17T14:38:24;4.77;;;2.87;;
6394;SDS011;3230;42.588;23.358;2022-12-17T14:40:51;4.63;;;3.07;;
6394;SDS011;3230;42.588;23.358;2022-12-17T14:43:17;5.87;;;2.80;;
6394;SDS011;3230;42.588;23.358;2022-12-17T14:45:50;13.63;;;7.03;;
6394;SDS011;3230;42.588;23.358;2022-12-17T14:48:38;13.43;;;6.60;;
6394;SDS011;3230;42.588;23.358;2022-12-17T14:51:23;15.43;;;9.93;;
6394;SDS011;3230;42.588;23.358;2022-12-17T14:56:38;12.70;;;6.20;;
6394;SDS011;3230;42.588;23.358;2022-12-17T14:59:20;10.97;;;6.83;;
6394;SDS011;3230;42.588;23.358;2022-12-17T15:01:47;13.53;;;7.30;;
6394;SDS011;3230;42.588;23.358;2022-12-17T15:04:13;15.20;;;7.10;;
6394;SDS011;3230;42.588;23.358;2022-12-17T15:06:40;13.97;;;7.20;;
6394;SDS011;3230;42.588;23.358;2022-12-17T15:09:05;13.77;;;7.40;;
6394;SDS011;3230;42.588;23.358;2022-12-17T15:11:31;21.53;;;12.93;;
6394;SDS011;3230;42.588;23.358;2022-12-17T15:13:56;19.47;;;6.37;;
6394;SDS011;3230;42.588;23.358;2022-12-17T15:16:21;16.13;;;6.10;;
6394;SDS011;3230;42.588;23.358;2022-12-17T15:18:47;14.10;;;8.60;;
6394;SDS011;3230;42.588;23.358;2022-12-17T15:21:12;58.87;;;24.80;;
6394;SDS011;3230;42.588;23.358;2022-12-17T15:23:38;48.20;;;21.70;;
6394;SDS011;3230;42.588;23.358;2022-12-17T15:26:07;28.63;;;15.10;;
6394;SDS011;3230;42.588;23.358;2022-12-17T15:28:33;30.23;;;15.73;;
6394;SDS011;3230;42.588;23.358;2022-12-17T15:30:58;37.33;;;17.17;;
6394;SDS011;3230;42.588;23.358;2022-12-17T15:33:24;53.03;;;23.80;;
6394;SDS011;3230;42.588;23.358;2022-12-17T15:35:49;21.23;;;9.47;;
6394;SDS011;3230;42.588;23.358;2022-12-17T15:38:15;90.57;;;36.00;;
6394;SDS011;3230;42.588;23.358;2022-12-17T15:40:40;62.67;;;29.53;;
6394;SDS011;3230;42.588;23.358;2022-12-17T15:43:07;38.07;;;19.23;;
6394;SDS011;3230;42.588;23.358;2022-12-17T15:45:37;24.93;;;14.80;;
6394;SDS011;3230;42.588;23.358;2022-12-17T15:48:06;29.00;;;16.47;;
6394;SDS011;3230;42.588;23.358;2022-12-17T15:50:32;20.20;;;12.50;;
6394;SDS011;3230;42.588;23.358;2022-12-17T15:52:58;23.40;;;12.00;;
6394;SDS011;3230;42.588;23.358;2022-12-17T15:55:23;31.57;;;18.60;;
6394;SDS011;3230;42.588;23.358;2022-12-17T15:57:49;34.20;;;17.83;;
6394;SDS011;3230;42.588;23.358;2022-12-17T16:00:14;36.33;;;17.23;;
6394;SDS011;3230;42.588;23.358;2022-12-17T16:02:40;50.73;;;20.47;;
6394;SDS011;3230;42.588;23.358;2022-12-17T16:05:06;22.13;;;9.80;;
6394;SDS011;3230;42.588;23.358;2022-12-17T16:07:32;8.20;;;4.67;;
6394;SDS011;3230;42.588;23.358;2022-12-17T16:09:57;13.60;;;8.43;;
6394;SDS011;3230;42.588;23.358;2022-12-17T16:12:23;20.57;;;11.77;;
6394;SDS011;3230;42.588;23.358;2022-12-17T16:14:48;33.87;;;16.17;;
6394;SDS011;3230;42.588;23.358;2022-12-17T16:17:14;49.63;;;25.57;;
6394;SDS011;3230;42.588;23.358;2022-12-17T16:19:39;54.47;;;25.43;;
6394;SDS011;3230;42.588;23.358;2022-12-17T16:22:04;66.87;;;32.80;;
6394;SDS011;3230;42.588;23.358;2022-12-17T16:24:30;47.17;;;24.17;;
6394;SDS011;3230;42.588;23.358;2022-12-17T16:26:55;19.40;;;12.73;;
6394;SDS011;3230;42.588;23.358;2022-12-17T16:29:21;24.63;;;16.13;;
6394;SDS011;3230;42.588;23.358;2022-12-17T16:31:47;29.07;;;16.10;;
6394;SDS011;3230;42.588;23.358;2022-12-17T16:34:13;25.83;;;16.87;;
6394;SDS011;3230;42.588;23.358;2022-12-17T16:36:39;15.27;;;9.67;;
6394;SDS011;3230;42.588;23.358;2022-12-17T16:39:05;9.60;;;6.97;;
6394;SDS011;3230;42.588;23.358;2022-12-17T16:41:31;13.50;;;7.60;;
6394;SDS011;3230;42.588;23.358;2022-12-17T16:43:56;13.93;;;9.23;;
6394;SDS011;3230;42.588;23.358;2022-12-17T16:46:29;17.13;;;11.77;;
6394;SDS011;3230;42.588;23.358;2022-12-17T16:49:06;18.20;;;10.97;;
6394;SDS011;3230;42.588;23.358;2022-12-17T16:51:37;15.27;;;9.47;;
6394;SDS011;3230;42.588;23.358;2022-12-17T16:54:04;20.37;;;12.17;;
6394;SDS011;3230;42.588;23.358;2022-12-17T16:56:34;23.30;;;15.20;;
6394;SDS011;3230;42.588;23.358;2022-12-17T16:59:01;22.00;;;13.80;;
6394;SDS011;3230;42.588;23.358;2022-12-17T17:01:31;14.87;;;9.60;;
6394;SDS011;3230;42.588;23.358;2022-12-17T17:03:58;17.90;;;10.43;;
6394;SDS011;3230;42.588;23.358;2022-12-17T17:06:23;17.07;;;9.70;;
6394;SDS011;3230;42.588;23.358;2022-12-17T17:08:50;13.03;;;8.40;;
6394;SDS011;3230;42.588;23.358;2022-12-17T17:11:19;11.70;;;7.87;;
6394;SDS011;3230;42.588;23.358;2022-12-17T17:13:46;21.07;;;8.60;;
6394;SDS011;3230;42.588;23.358;2022-12-17T17:16:13;13.90;;;6.93;;
6394;SDS011;3230;42.588;23.358;2022-12-17T17:18:38;11.17;;;5.50;;
6394;SDS011;3230;42.588;23.358;2022-12-17T17:21:11;10.47;;;6.30;;
6394;SDS011;3230;42.588;23.358;2022-12-17T17:23:37;40.90;;;21.50;;
6394;SDS011;3230;42.588;23.358;2022-12-17T17:26:03;89.63;;;42.57;;
6394;SDS011;3230;42.588;23.358;2022-12-17T17:28:29;41.30;;;22.70;;
6394;SDS011;3230;42.588;23.358;2022-12-17T17:30:58;58.20;;;30.47;;
6394;SDS011;3230;42.588;23.358;2022-12-17T17:33:27;37.87;;;20.83;;
6394;SDS011;3230;42.588;23.358;2022-12-17T17:38:29;29.93;;;15.50;;
6394;SDS011;3230;42.588;23.358;2022-12-17T17:40:56;21.30;;;10.97;;
6394;SDS011;3230;42.588;23.358;2022-12-17T17:43:22;31.93;;;17.07;;
6394;SDS011;3230;42.588;23.358;2022-12-17T17:45:47;29.13;;;17.40;;
6394;SDS011;3230;42.588;23.358;2022-12-17T17:48:13;37.90;;;22.60;;
6394;SDS011;3230;42.588;23.358;2022-12-17T17:50:38;43.83;;;24.47;;
6394;SDS011;3230;42.588;23.358;2022-12-17T17:53:03;58.10;;;27.57;;